sensor_id;sensor_type;location;lat;lon;timestamp;P1;durP1;ratioP1;P2;durP2;ratioP2
20090;SDS011;10205;49.678;6.560;2022-09-27T00:01:09;2.65;;;1.48;;
20090;SDS011;10205;49.678;6.560;2022-09-27T00:03:39;3.70;;;1.70;;
20090;SDS011;10205;49.678;6.560;2022-09-27T00:06:07;1.60;;;1.17;;
20090;SDS011;10205;49.678;6.560;2022-09-27T00:08:38;4.32;;;1.42;;
20090;SDS011;10205;49.678;6.560;2022-09-27T00:11:08;3.53;;;1.40;;
20090;SDS011;10205;49.678;6.560;2022-09-27T00:13:42;3.15;;;1.40;;
20090;SDS011;10205;49.678;6.560;2022-09-27T00:16:11;2.17;;;1.30;;
20090;SDS011;10205;49.678;6.560;2022-09-27T00:18:38;3.33;;;1.48;;
20090;SDS011;10205;49.678;6.560;2022-09-27T00:21:06;2.38;;;1.30;;
20090;SDS011;10205;49.678;6.560;2022-09-27T00:23:36;2.85;;;1.40;;
20090;SDS011;10205;49.678;6.560;2022-09-27T00:26:05;2.55;;;1.48;;
20090;SDS011;10205;49.678;6.560;2022-09-27T00:28:35;1.80;;;1.35;;
20090;SDS011;10205;49.678;6.560;2022-09-27T00:31:03;2.22;;;1.45;;
20090;SDS011;10205;49.678;6.560;2022-09-27T00:33:44;2.95;;;1.52;;
20090;SDS011;10205;49.678;6.560;2022-09-27T00:36:12;5.35;;;1.80;;
20090;SDS011;10205;49.678;6.560;2022-09-27T00:38:40;2.22;;;1.50;;
20090;SDS011;10205;49.678;6.560;2022-09-27T00:41:08;2.53;;;1.67;;
20090;SDS011;10205;49.678;6.560;2022-09-27T00:43:42;2.35;;;1.55;;
20090;SDS011;10205;49.678;6.560;2022-09-27T00:46:17;4.30;;;1.73;;
20090;SDS011;10205;49.678;6.560;2022-09-27T00:48:53;1.95;;;1.20;;
20090;SDS011;10205;49.678;6.560;2022-09-27T00:51:34;3.50;;;1.85;;
20090;SDS011;10205;49.678;6.560;2022-09-27T00:54:05;1.98;;;1.30;;
20090;SDS011;10205;49.678;6.560;2022-09-27T00:56:36;3.63;;;1.33;;
20090;SDS011;10205;49.678;6.560;2022-09-27T00:59:05;3.38;;;1.60;;
20090;SDS011;10205;49.678;6.560;2022-09-27T01:01:40;3.28;;;1.20;;
20090;SDS011;10205;49.678;6.560;2022-09-27T01:04:10;3.78;;;2.13;;
20090;SDS011;10205;49.678;6.560;2022-09-27T01:06:42;1.75;;;1.30;;
20090;SDS011;10205;49.678;6.560;2022-09-27T01:09:09;2.35;;;1.75;;
20090;SDS011;10205;49.678;6.560;2022-09-27T01:11:39;2.28;;;1.35;;
20090;SDS011;10205;49.678;6.560;2022-09-27T01:17:28;1.95;;;1.20;;
20090;SDS011;10205;49.678;6.560;2022-09-27T01:27:16;1.60;;;1.00;;
20090;SDS011;10205;49.678;6.560;2022-09-27T01:30:42;1.35;;;0.90;;
20090;SDS011;10205;49.678;6.560;2022-09-27T01:33:23;1.75;;;0.93;;
20090;SDS011;10205;49.678;6.560;2022-09-27T01:36:07;1.30;;;1.05;;
20090;SDS011;10205;49.678;6.560;2022-09-27T01:38:52;1.88;;;1.02;;
20090;SDS011;10205;49.678;6.560;2022-09-27T01:41:34;1.42;;;1.00;;
20090;SDS011;10205;49.678;6.560;2022-09-27T01:44:14;1.30;;;1.10;;
20090;SDS011;10205;49.678;6.560;2022-09-27T01:46:55;1.23;;;1.10;;
20090;SDS011;10205;49.678;6.560;2022-09-27T01:49:30;1.33;;;0.90;;
20090;SDS011;10205;49.678;6.560;2022-09-27T01:52:06;2.35;;;1.05;;
20090;SDS011;10205;49.678;6.560;2022-09-27T01:54:37;1.42;;;1.00;;
20090;SDS011;10205;49.678;6.560;2022-09-27T01:57:10;1.05;;;0.70;;
20090;SDS011;10205;49.678;6.560;2022-09-27T01:59:45;2.10;;;1.05;;
20090;SDS011;10205;49.678;6.560;2022-09-27T02:02:20;0.98;;;0.85;;
20090;SDS011;10205;49.678;6.560;2022-09-27T02:04:51;0.80;;;0.80;;
20090;SDS011;10205;49.678;6.560;2022-09-27T02:07:26;1.13;;;1.00;;
20090;SDS011;10205;49.678;6.560;2022-09-27T02:10:00;0.80;;;0.80;;
20090;SDS011;10205;49.678;6.560;2022-09-27T02:12:39;1.27;;;0.80;;
20090;SDS011;10205;49.678;6.560;2022-09-27T02:15:15;1.15;;;0.80;;
20090;SDS011;10205;49.678;6.560;2022-09-27T02:17:46;0.70;;;0.70;;
20090;SDS011;10205;49.678;6.560;2022-09-27T02:20:26;1.05;;;0.80;;
20090;SDS011;10205;49.678;6.560;2022-09-27T02:23:01;0.93;;;0.80;;
20090;SDS011;10205;49.678;6.560;2022-09-27T02:25:40;1.65;;;0.70;;
20090;SDS011;10205;49.678;6.560;2022-09-27T02:28:22;0.73;;;0.73;;
20090;SDS011;10205;49.678;6.560;2022-09-27T02:30:56;1.95;;;0.90;;
20090;SDS011;10205;49.678;6.560;2022-09-27T02:33:25;0.98;;;0.90;;
20090;SDS011;10205;49.678;6.560;2022-09-27T02:35:58;0.70;;;0.60;;
20090;SDS011;10205;49.678;6.560;2022-09-27T02:38:27;0.95;;;0.70;;
20090;SDS011;10205;49.678;6.560;2022-09-27T02:40:55;0.63;;;0.63;;
20090;SDS011;10205;49.678;6.560;2022-09-27T02:43:26;0.70;;;0.70;;
20090;SDS011;10205;49.678;6.560;2022-09-27T02:46:02;0.60;;;0.60;;
20090;SDS011;10205;49.678;6.560;2022-09-27T02:48:46;1.45;;;0.88;;
20090;SDS011;10205;49.678;6.560;2022-09-27T02:51:31;1.60;;;0.75;;
20090;SDS011;10205;49.678;6.560;2022-09-27T02:54:13;1.60;;;0.75;;
20090;SDS011;10205;49.678;6.560;2022-09-27T02:56:54;0.77;;;0.75;;
20090;SDS011;10205;49.678;6.560;2022-09-27T02:59:39;1.48;;;0.80;;
20090;SDS011;10205;49.678;6.560;2022-09-27T03:02:21;1.77;;;0.90;;
20090;SDS011;10205;49.678;6.560;2022-09-27T03:05:01;1.15;;;0.80;;
20090;SDS011;10205;49.678;6.560;2022-09-27T03:07:33;1.08;;;0.80;;
20090;SDS011;10205;49.678;6.560;2022-09-27T03:10:02;0.88;;;0.70;;
20090;SDS011;10205;49.678;6.560;2022-09-27T03:12:31;1.13;;;0.90;;
20090;SDS011;10205;49.678;6.560;2022-09-27T03:14:59;0.77;;;0.77;;
20090;SDS011;10205;49.678;6.560;2022-09-27T03:17:27;0.80;;;0.80;;
20090;SDS011;10205;49.678;6.560;2022-09-27T03:19:54;0.90;;;0.70;;
20090;SDS011;10205;49.678;6.560;2022-09-27T03:22:23;0.70;;;0.70;;
20090;SDS011;10205;49.678;6.560;2022-09-27T03:24:50;1.60;;;0.80;;
20090;SDS011;10205;49.678;6.560;2022-09-27T03:27:17;1.40;;;0.80;;
20090;SDS011;10205;49.678;6.560;2022-09-27T03:29:45;2.42;;;1.00;;
20090;SDS011;10205;49.678;6.560;2022-09-27T03:32:12;0.90;;;0.90;;
20090;SDS011;10205;49.678;6.560;2022-09-27T03:34:40;1.20;;;0.77;;
20090;SDS011;10205;49.678;6.560;2022-09-27T03:37:07;0.63;;;0.63;;
20090;SDS011;10205;49.678;6.560;2022-09-27T03:39:36;1.35;;;1.00;;
20090;SDS011;10205;49.678;6.560;2022-09-27T03:42:04;0.77;;;0.77;;
20090;SDS011;10205;49.678;6.560;2022-09-27T03:44:32;0.80;;;0.77;;
20090;SDS011;10205;49.678;6.560;2022-09-27T03:46:59;1.13;;;0.80;;
20090;SDS011;10205;49.678;6.560;2022-09-27T03:49:27;0.77;;;0.77;;
20090;SDS011;10205;49.678;6.560;2022-09-27T03:51:57;0.70;;;0.70;;
20090;SDS011;10205;49.678;6.560;2022-09-27T03:54:24;1.10;;;1.00;;
20090;SDS011;10205;49.678;6.560;2022-09-27T03:56:52;2.25;;;0.80;;
20090;SDS011;10205;49.678;6.560;2022-09-27T03:59:20;1.15;;;0.73;;
20090;SDS011;10205;49.678;6.560;2022-09-27T04:01:47;0.70;;;0.70;;
20090;SDS011;10205;49.678;6.560;2022-09-27T04:04:14;2.25;;;0.80;;
20090;SDS011;10205;49.678;6.560;2022-09-27T04:06:41;1.23;;;0.75;;
20090;SDS011;10205;49.678;6.560;2022-09-27T04:09:09;2.45;;;0.90;;
20090;SDS011;10205;49.678;6.560;2022-09-27T04:11:36;1.35;;;0.90;;
20090;SDS011;10205;49.678;6.560;2022-09-27T04:14:05;0.87;;;0.87;;
20090;SDS011;10205;49.678;6.560;2022-09-27T04:16:33;1.02;;;0.70;;
20090;SDS011;10205;49.678;6.560;2022-09-27T04:19:00;1.13;;;0.75;;
20090;SDS011;10205;49.678;6.560;2022-09-27T04:21:27;0.95;;;0.70;;
20090;SDS011;10205;49.678;6.560;2022-09-27T04:23:55;0.68;;;0.68;;
20090;SDS011;10205;49.678;6.560;2022-09-27T04:26:22;1.30;;;0.70;;
20090;SDS011;10205;49.678;6.560;2022-09-27T04:28:50;0.70;;;0.70;;
20090;SDS011;10205;49.678;6.560;2022-09-27T04:31:19;1.38;;;0.80;;
20090;SDS011;10205;49.678;6.560;2022-09-27T04:33:47;1.48;;;0.90;;
20090;SDS011;10205;49.678;6.560;2022-09-27T04:36:14;1.30;;;0.80;;
20090;SDS011;10205;49.678;6.560;2022-09-27T04:38:53;0.73;;;0.70;;
20090;SDS011;10205;49.678;6.560;2022-09-27T04:41:23;0.70;;;0.70;;
20090;SDS011;10205;49.678;6.560;2022-09-27T04:43:52;1.52;;;1.02;;
20090;SDS011;10205;49.678;6.560;2022-09-27T04:46:25;0.70;;;0.70;;
20090;SDS011;10205;49.678;6.560;2022-09-27T04:48:55;0.82;;;0.82;;
20090;SDS011;10205;49.678;6.560;2022-09-27T04:51:23;0.80;;;0.80;;
20090;SDS011;10205;49.678;6.560;2022-09-27T04:53:54;0.90;;;0.70;;
20090;SDS011;10205;49.678;6.560;2022-09-27T04:56:22;2.00;;;1.13;;
20090;SDS011;10205;49.678;6.560;2022-09-27T04:58:49;1.17;;;1.00;;
20090;SDS011;10205;49.678;6.560;2022-09-27T05:01:18;1.05;;;0.80;;
20090;SDS011;10205;49.678;6.560;2022-09-27T05:03:46;0.82;;;0.73;;
20090;SDS011;10205;49.678;6.560;2022-09-27T05:06:14;0.90;;;0.82;;
20090;SDS011;10205;49.678;6.560;2022-09-27T05:08:41;1.05;;;0.70;;
20090;SDS011;10205;49.678;6.560;2022-09-27T05:11:09;1.55;;;0.85;;
20090;SDS011;10205;49.678;6.560;2022-09-27T05:13:37;1.40;;;0.80;;
20090;SDS011;10205;49.678;6.560;2022-09-27T05:16:04;0.80;;;0.80;;
20090;SDS011;10205;49.678;6.560;2022-09-27T05:18:32;0.90;;;0.82;;
20090;SDS011;10205;49.678;6.560;2022-09-27T05:21:01;0.77;;;0.77;;
20090;SDS011;10205;49.678;6.560;2022-09-27T05:23:28;0.82;;;0.82;;
20090;SDS011;10205;49.678;6.560;2022-09-27T05:25:56;0.80;;;0.80;;
20090;SDS011;10205;49.678;6.560;2022-09-27T05:28:23;0.95;;;0.80;;
20090;SDS011;10205;49.678;6.560;2022-09-27T05:30:50;0.70;;;0.70;;
20090;SDS011;10205;49.678;6.560;2022-09-27T05:33:18;0.80;;;0.80;;
20090;SDS011;10205;49.678;6.560;2022-09-27T05:35:50;0.70;;;0.70;;
20090;SDS011;10205;49.678;6.560;2022-09-27T05:38:20;1.23;;;0.60;;
20090;SDS011;10205;49.678;6.560;2022-09-27T05:40:52;1.20;;;0.98;;
20090;SDS011;10205;49.678;6.560;2022-09-27T05:43:19;0.75;;;0.75;;
20090;SDS011;10205;49.678;6.560;2022-09-27T05:45:46;0.80;;;0.70;;
20090;SDS011;10205;49.678;6.560;2022-09-27T05:48:15;0.80;;;0.80;;
20090;SDS011;10205;49.678;6.560;2022-09-27T05:50:42;0.70;;;0.70;;
20090;SDS011;10205;49.678;6.560;2022-09-27T05:53:10;1.15;;;0.77;;
20090;SDS011;10205;49.678;6.560;2022-09-27T05:55:39;0.82;;;0.80;;
20090;SDS011;10205;49.678;6.560;2022-09-27T05:58:08;0.60;;;0.60;;
20090;SDS011;10205;49.678;6.560;2022-09-27T06:00:40;0.68;;;0.68;;
20090;SDS011;10205;49.678;6.560;2022-09-27T06:03:09;1.48;;;0.80;;
20090;SDS011;10205;49.678;6.560;2022-09-27T06:05:38;0.75;;;0.60;;
20090;SDS011;10205;49.678;6.560;2022-09-27T06:08:07;1.02;;;0.68;;
20090;SDS011;10205;49.678;6.560;2022-09-27T06:10:37;0.60;;;0.60;;
20090;SDS011;10205;49.678;6.560;2022-09-27T06:13:06;1.13;;;0.60;;
20090;SDS011;10205;49.678;6.560;2022-09-27T06:15:37;0.60;;;0.60;;
20090;SDS011;10205;49.678;6.560;2022-09-27T06:18:07;0.60;;;0.60;;
20090;SDS011;10205;49.678;6.560;2022-09-27T06:20:36;0.60;;;0.60;;
20090;SDS011;10205;49.678;6.560;2022-09-27T06:23:06;1.00;;;0.70;;
20090;SDS011;10205;49.678;6.560;2022-09-27T06:25:36;0.90;;;0.80;;
20090;SDS011;10205;49.678;6.560;2022-09-27T06:28:06;0.70;;;0.70;;
20090;SDS011;10205;49.678;6.560;2022-09-27T06:30:37;0.70;;;0.70;;
20090;SDS011;10205;49.678;6.560;2022-09-27T06:33:05;1.92;;;0.70;;
20090;SDS011;10205;49.678;6.560;2022-09-27T06:35:34;0.82;;;0.70;;
20090;SDS011;10205;49.678;6.560;2022-09-27T06:38:02;0.85;;;0.85;;
20090;SDS011;10205;49.678;6.560;2022-09-27T06:40:31;0.70;;;0.70;;
20090;SDS011;10205;49.678;6.560;2022-09-27T06:43:01;0.70;;;0.70;;
20090;SDS011;10205;49.678;6.560;2022-09-27T06:45:31;1.05;;;0.63;;
20090;SDS011;10205;49.678;6.560;2022-09-27T06:47:59;0.70;;;0.70;;
20090;SDS011;10205;49.678;6.560;2022-09-27T06:50:27;1.02;;;0.90;;
20090;SDS011;10205;49.678;6.560;2022-09-27T06:52:55;0.90;;;0.80;;
20090;SDS011;10205;49.678;6.560;2022-09-27T06:55:22;1.35;;;1.10;;
20090;SDS011;10205;49.678;6.560;2022-09-27T06:57:52;1.05;;;1.00;;
20090;SDS011;10205;49.678;6.560;2022-09-27T07:00:38;1.45;;;1.10;;
20090;SDS011;10205;49.678;6.560;2022-09-27T07:03:07;1.00;;;1.00;;
20090;SDS011;10205;49.678;6.560;2022-09-27T07:05:36;1.67;;;1.00;;
20090;SDS011;10205;49.678;6.560;2022-09-27T07:08:05;2.47;;;1.20;;
20090;SDS011;10205;49.678;6.560;2022-09-27T07:10:36;3.38;;;1.55;;
20090;SDS011;10205;49.678;6.560;2022-09-27T07:13:05;1.85;;;1.48;;
20090;SDS011;10205;49.678;6.560;2022-09-27T07:15:34;2.13;;;1.60;;
20090;SDS011;10205;49.678;6.560;2022-09-27T07:18:04;1.65;;;1.27;;
20090;SDS011;10205;49.678;6.560;2022-09-27T07:20:33;2.60;;;1.40;;
20090;SDS011;10205;49.678;6.560;2022-09-27T07:23:02;1.85;;;1.40;;
20090;SDS011;10205;49.678;6.560;2022-09-27T07:25:31;3.22;;;1.65;;
20090;SDS011;10205;49.678;6.560;2022-09-27T07:27:59;2.63;;;1.50;;
20090;SDS011;10205;49.678;6.560;2022-09-27T07:30:28;2.90;;;1.67;;
20090;SDS011;10205;49.678;6.560;2022-09-27T07:32:56;1.42;;;1.33;;
20090;SDS011;10205;49.678;6.560;2022-09-27T07:35:25;5.13;;;1.58;;
20090;SDS011;10205;49.678;6.560;2022-09-27T07:37:54;3.63;;;1.65;;
20090;SDS011;10205;49.678;6.560;2022-09-27T07:40:23;1.50;;;1.40;;
20090;SDS011;10205;49.678;6.560;2022-09-27T07:42:53;1.38;;;1.20;;
20090;SDS011;10205;49.678;6.560;2022-09-27T07:45:22;1.52;;;1.33;;
20090;SDS011;10205;49.678;6.560;2022-09-27T07:47:49;1.73;;;1.30;;
20090;SDS011;10205;49.678;6.560;2022-09-27T07:50:17;2.28;;;1.65;;
20090;SDS011;10205;49.678;6.560;2022-09-27T07:52:47;2.33;;;1.60;;
20090;SDS011;10205;49.678;6.560;2022-09-27T07:55:15;3.17;;;1.50;;
20090;SDS011;10205;49.678;6.560;2022-09-27T07:57:46;2.28;;;1.70;;
20090;SDS011;10205;49.678;6.560;2022-09-27T08:00:14;1.50;;;1.35;;
20090;SDS011;10205;49.678;6.560;2022-09-27T08:02:44;2.22;;;1.38;;
20090;SDS011;10205;49.678;6.560;2022-09-27T08:05:11;2.72;;;1.50;;
20090;SDS011;10205;49.678;6.560;2022-09-27T08:07:40;1.80;;;1.40;;
20090;SDS011;10205;49.678;6.560;2022-09-27T08:10:09;1.95;;;1.52;;
20090;SDS011;10205;49.678;6.560;2022-09-27T08:12:36;3.80;;;1.70;;
20090;SDS011;10205;49.678;6.560;2022-09-27T08:15:04;2.72;;;1.50;;
20090;SDS011;10205;49.678;6.560;2022-09-27T08:17:32;1.75;;;1.65;;
20090;SDS011;10205;49.678;6.560;2022-09-27T08:19:59;3.05;;;1.85;;
20090;SDS011;10205;49.678;6.560;2022-09-27T08:22:30;1.50;;;1.38;;
20090;SDS011;10205;49.678;6.560;2022-09-27T08:24:57;3.60;;;1.85;;
20090;SDS011;10205;49.678;6.560;2022-09-27T08:27:26;1.40;;;1.30;;
20090;SDS011;10205;49.678;6.560;2022-09-27T08:29:53;2.15;;;1.60;;
20090;SDS011;10205;49.678;6.560;2022-09-27T08:32:20;2.28;;;1.67;;
20090;SDS011;10205;49.678;6.560;2022-09-27T08:34:47;3.08;;;1.90;;
20090;SDS011;10205;49.678;6.560;2022-09-27T08:37:15;2.83;;;1.83;;
20090;SDS011;10205;49.678;6.560;2022-09-27T08:39:42;2.75;;;2.10;;
20090;SDS011;10205;49.678;6.560;2022-09-27T08:42:12;2.03;;;1.83;;
20090;SDS011;10205;49.678;6.560;2022-09-27T08:44:57;2.65;;;1.63;;
20090;SDS011;10205;49.678;6.560;2022-09-27T08:47:35;2.88;;;1.85;;
20090;SDS011;10205;49.678;6.560;2022-09-27T08:50:13;2.95;;;2.25;;
20090;SDS011;10205;49.678;6.560;2022-09-27T08:52:52;3.63;;;2.05;;
20090;SDS011;10205;49.678;6.560;2022-09-27T08:55:26;2.70;;;2.35;;
20090;SDS011;10205;49.678;6.560;2022-09-27T08:58:03;4.30;;;2.08;;
20090;SDS011;10205;49.678;6.560;2022-09-27T09:00:39;3.13;;;1.90;;
20090;SDS011;10205;49.678;6.560;2022-09-27T09:03:08;3.25;;;2.20;;
20090;SDS011;10205;49.678;6.560;2022-09-27T09:05:47;5.85;;;2.15;;
20090;SDS011;10205;49.678;6.560;2022-09-27T09:08:36;1.77;;;1.58;;
20090;SDS011;10205;49.678;6.560;2022-09-27T09:11:19;3.35;;;2.63;;
20090;SDS011;10205;49.678;6.560;2022-09-27T09:17:20;3.88;;;1.80;;
20090;SDS011;10205;49.678;6.560;2022-09-27T09:20:10;2.05;;;1.70;;
20090;SDS011;10205;49.678;6.560;2022-09-27T09:22:57;4.65;;;2.05;;
20090;SDS011;10205;49.678;6.560;2022-09-27T09:25:42;4.50;;;1.95;;
20090;SDS011;10205;49.678;6.560;2022-09-27T09:28:24;4.63;;;1.92;;
20090;SDS011;10205;49.678;6.560;2022-09-27T09:31:07;2.95;;;1.80;;
20090;SDS011;10205;49.678;6.560;2022-09-27T09:33:45;2.65;;;1.65;;
20090;SDS011;10205;49.678;6.560;2022-09-27T09:36:20;2.45;;;1.75;;
20090;SDS011;10205;49.678;6.560;2022-09-27T09:38:54;2.33;;;1.83;;
20090;SDS011;10205;49.678;6.560;2022-09-27T09:41:28;3.40;;;1.95;;
20090;SDS011;10205;49.678;6.560;2022-09-27T09:44:04;2.40;;;1.90;;
20090;SDS011;10205;49.678;6.560;2022-09-27T09:46:45;4.00;;;1.70;;
20090;SDS011;10205;49.678;6.560;2022-09-27T09:49:20;2.92;;;1.60;;
20090;SDS011;10205;49.678;6.560;2022-09-27T09:51:54;1.90;;;1.45;;
20090;SDS011;10205;49.678;6.560;2022-09-27T09:54:28;2.65;;;1.77;;
20090;SDS011;10205;49.678;6.560;2022-09-27T09:57:02;2.90;;;1.83;;
20090;SDS011;10205;49.678;6.560;2022-09-27T09:59:39;2.65;;;1.83;;
20090;SDS011;10205;49.678;6.560;2022-09-27T10:02:18;2.35;;;1.52;;
20090;SDS011;10205;49.678;6.560;2022-09-27T10:04:53;2.28;;;1.55;;
20090;SDS011;10205;49.678;6.560;2022-09-27T10:07:21;1.60;;;1.50;;
20090;SDS011;10205;49.678;6.560;2022-09-27T10:09:50;4.38;;;1.92;;
20090;SDS011;10205;49.678;6.560;2022-09-27T10:12:20;3.38;;;1.60;;
20090;SDS011;10205;49.678;6.560;2022-09-27T10:14:48;1.60;;;1.33;;
20090;SDS011;10205;49.678;6.560;2022-09-27T10:17:20;2.08;;;1.35;;
20090;SDS011;10205;49.678;6.560;2022-09-27T10:19:52;2.90;;;1.67;;
20090;SDS011;10205;49.678;6.560;2022-09-27T10:22:25;3.70;;;1.30;;
20090;SDS011;10205;49.678;6.560;2022-09-27T10:25:01;1.77;;;1.40;;
20090;SDS011;10205;49.678;6.560;2022-09-27T10:27:36;2.20;;;1.40;;
20090;SDS011;10205;49.678;6.560;2022-09-27T10:30:12;2.22;;;1.10;;
20090;SDS011;10205;49.678;6.560;2022-09-27T10:32:52;2.50;;;1.52;;
20090;SDS011;10205;49.678;6.560;2022-09-27T10:35:33;4.90;;;1.80;;
20090;SDS011;10205;49.678;6.560;2022-09-27T10:38:20;4.25;;;1.75;;
20090;SDS011;10205;49.678;6.560;2022-09-27T10:40:51;2.17;;;1.50;;
20090;SDS011;10205;49.678;6.560;2022-09-27T10:43:24;1.63;;;1.15;;
20090;SDS011;10205;49.678;6.560;2022-09-27T10:46:02;2.63;;;1.45;;
20090;SDS011;10205;49.678;6.560;2022-09-27T10:48:49;2.35;;;1.60;;
20090;SDS011;10205;49.678;6.560;2022-09-27T10:51:37;2.13;;;1.38;;
20090;SDS011;10205;49.678;6.560;2022-09-27T10:54:04;3.30;;;1.55;;
20090;SDS011;10205;49.678;6.560;2022-09-27T10:56:44;2.47;;;1.50;;
20090;SDS011;10205;49.678;6.560;2022-09-27T10:59:23;2.17;;;1.63;;
20090;SDS011;10205;49.678;6.560;2022-09-27T11:01:55;2.28;;;1.50;;
20090;SDS011;10205;49.678;6.560;2022-09-27T11:04:27;3.67;;;2.10;;
20090;SDS011;10205;49.678;6.560;2022-09-27T11:09:52;4.28;;;1.70;;
20090;SDS011;10205;49.678;6.560;2022-09-27T11:12:27;3.58;;;1.58;;
20090;SDS011;10205;49.678;6.560;2022-09-27T11:14:57;1.23;;;1.13;;
20090;SDS011;10205;49.678;6.560;2022-09-27T11:17:31;2.83;;;1.60;;
20090;SDS011;10205;49.678;6.560;2022-09-27T11:20:16;4.00;;;1.58;;
20090;SDS011;10205;49.678;6.560;2022-09-27T11:23:01;4.90;;;1.38;;
20090;SDS011;10205;49.678;6.560;2022-09-27T11:26:07;4.78;;;1.85;;
20090;SDS011;10205;49.678;6.560;2022-09-27T11:28:57;2.70;;;1.50;;
20090;SDS011;10205;49.678;6.560;2022-09-27T11:31:39;1.85;;;1.30;;
20090;SDS011;10205;49.678;6.560;2022-09-27T11:34:23;4.50;;;1.83;;
20090;SDS011;10205;49.678;6.560;2022-09-27T11:37:09;4.03;;;1.75;;
20090;SDS011;10205;49.678;6.560;2022-09-27T11:39:51;2.70;;;1.38;;
20090;SDS011;10205;49.678;6.560;2022-09-27T11:42:41;1.88;;;1.42;;
20090;SDS011;10205;49.678;6.560;2022-09-27T11:45:48;1.88;;;1.25;;
20090;SDS011;10205;49.678;6.560;2022-09-27T11:48:35;1.58;;;1.48;;
20090;SDS011;10205;49.678;6.560;2022-09-27T11:51:33;2.28;;;1.17;;
20090;SDS011;10205;49.678;6.560;2022-09-27T11:54:30;3.70;;;1.40;;
20090;SDS011;10205;49.678;6.560;2022-09-27T11:57:16;4.45;;;1.40;;
20090;SDS011;10205;49.678;6.560;2022-09-27T11:59:54;2.20;;;1.38;;
20090;SDS011;10205;49.678;6.560;2022-09-27T12:02:44;1.38;;;1.10;;
20090;SDS011;10205;49.678;6.560;2022-09-27T12:05:46;2.25;;;1.10;;
20090;SDS011;10205;49.678;6.560;2022-09-27T12:08:35;1.80;;;0.80;;
20090;SDS011;10205;49.678;6.560;2022-09-27T12:11:28;2.08;;;1.10;;
20090;SDS011;10205;49.678;6.560;2022-09-27T12:14:05;3.25;;;1.27;;
20090;SDS011;10205;49.678;6.560;2022-09-27T12:16:40;2.53;;;1.10;;
20090;SDS011;10205;49.678;6.560;2022-09-27T12:19:11;2.25;;;1.10;;
20090;SDS011;10205;49.678;6.560;2022-09-27T12:21:45;2.13;;;1.10;;
20090;SDS011;10205;49.678;6.560;2022-09-27T12:24:14;1.65;;;1.00;;
20090;SDS011;10205;49.678;6.560;2022-09-27T12:26:48;1.25;;;1.00;;
20090;SDS011;10205;49.678;6.560;2022-09-27T12:29:21;1.60;;;1.02;;
20090;SDS011;10205;49.678;6.560;2022-09-27T12:31:56;1.13;;;1.00;;
20090;SDS011;10205;49.678;6.560;2022-09-27T12:34:36;2.83;;;0.90;;
20090;SDS011;10205;49.678;6.560;2022-09-27T12:37:11;0.70;;;0.70;;
20090;SDS011;10205;49.678;6.560;2022-09-27T12:39:46;1.08;;;0.90;;
20090;SDS011;10205;49.678;6.560;2022-09-27T12:42:21;2.45;;;1.00;;
20090;SDS011;10205;49.678;6.560;2022-09-27T12:44:55;0.82;;;0.70;;
20090;SDS011;10205;49.678;6.560;2022-09-27T12:47:26;0.80;;;0.80;;
20090;SDS011;10205;49.678;6.560;2022-09-27T12:50:18;1.10;;;1.00;;
20090;SDS011;10205;49.678;6.560;2022-09-27T12:52:56;0.82;;;0.70;;
20090;SDS011;10205;49.678;6.560;2022-09-27T12:55:44;1.27;;;0.90;;
20090;SDS011;10205;49.678;6.560;2022-09-27T13:02:21;1.15;;;0.75;;
20090;SDS011;10205;49.678;6.560;2022-09-27T13:05:28;1.00;;;0.90;;
20090;SDS011;10205;49.678;6.560;2022-09-27T13:08:43;0.93;;;0.82;;
20090;SDS011;10205;49.678;6.560;2022-09-27T13:11:27;1.95;;;1.00;;
20090;SDS011;10205;49.678;6.560;2022-09-27T13:14:09;0.88;;;0.80;;
20090;SDS011;10205;49.678;6.560;2022-09-27T13:16:45;1.30;;;0.88;;
20090;SDS011;10205;49.678;6.560;2022-09-27T13:22:08;0.70;;;0.60;;
20090;SDS011;10205;49.678;6.560;2022-09-27T13:24:55;1.25;;;1.00;;
20090;SDS011;10205;49.678;6.560;2022-09-27T13:36:19;1.90;;;0.80;;
20090;SDS011;10205;49.678;6.560;2022-09-27T13:38:58;2.15;;;0.82;;
20090;SDS011;10205;49.678;6.560;2022-09-27T13:42:02;2.10;;;0.85;;
20090;SDS011;10205;49.678;6.560;2022-09-27T13:45:08;1.38;;;0.73;;
20090;SDS011;10205;49.678;6.560;2022-09-27T13:47:47;0.93;;;0.90;;
20090;SDS011;10205;49.678;6.560;2022-09-27T13:50:17;2.58;;;1.02;;
20090;SDS011;10205;49.678;6.560;2022-09-27T13:55:46;2.00;;;1.00;;
20090;SDS011;10205;49.678;6.560;2022-09-27T13:58:29;1.38;;;0.88;;
20090;SDS011;10205;49.678;6.560;2022-09-27T14:01:10;1.35;;;0.80;;
20090;SDS011;10205;49.678;6.560;2022-09-27T14:03:50;0.80;;;0.80;;
20090;SDS011;10205;49.678;6.560;2022-09-27T14:06:21;1.58;;;1.00;;
20090;SDS011;10205;49.678;6.560;2022-09-27T14:08:56;1.20;;;0.73;;
20090;SDS011;10205;49.678;6.560;2022-09-27T14:11:29;1.23;;;0.80;;
20090;SDS011;10205;49.678;6.560;2022-09-27T14:14:02;1.98;;;0.70;;
20090;SDS011;10205;49.678;6.560;2022-09-27T14:16:32;0.80;;;0.60;;
20090;SDS011;10205;49.678;6.560;2022-09-27T14:19:08;0.90;;;0.73;;
20090;SDS011;10205;49.678;6.560;2022-09-27T14:21:44;1.25;;;0.88;;
20090;SDS011;10205;49.678;6.560;2022-09-27T14:24:20;2.38;;;0.77;;
20090;SDS011;10205;49.678;6.560;2022-09-27T14:29:47;1.45;;;0.77;;
20090;SDS011;10205;49.678;6.560;2022-09-27T14:32:19;1.25;;;0.77;;
20090;SDS011;10205;49.678;6.560;2022-09-27T14:35:06;0.80;;;0.70;;
20090;SDS011;10205;49.678;6.560;2022-09-27T14:37:52;0.73;;;0.73;;
20090;SDS011;10205;49.678;6.560;2022-09-27T14:40:21;3.63;;;0.90;;
20090;SDS011;10205;49.678;6.560;2022-09-27T14:42:51;1.35;;;0.73;;
20090;SDS011;10205;49.678;6.560;2022-09-27T14:45:21;0.60;;;0.60;;
20090;SDS011;10205;49.678;6.560;2022-09-27T14:47:54;0.88;;;0.70;;
20090;SDS011;10205;49.678;6.560;2022-09-27T14:50:23;0.68;;;0.63;;
20090;SDS011;10205;49.678;6.560;2022-09-27T14:52:53;0.68;;;0.68;;
20090;SDS011;10205;49.678;6.560;2022-09-27T14:55:24;0.75;;;0.60;;
20090;SDS011;10205;49.678;6.560;2022-09-27T14:57:59;1.10;;;0.80;;
20090;SDS011;10205;49.678;6.560;2022-09-27T15:00:29;1.52;;;0.80;;
20090;SDS011;10205;49.678;6.560;2022-09-27T15:03:01;1.02;;;0.90;;
20090;SDS011;10205;49.678;6.560;2022-09-27T15:05:32;0.90;;;0.80;;
20090;SDS011;10205;49.678;6.560;2022-09-27T15:08:02;0.85;;;0.80;;
20090;SDS011;10205;49.678;6.560;2022-09-27T15:10:33;1.35;;;0.98;;
20090;SDS011;10205;49.678;6.560;2022-09-27T15:13:02;1.60;;;1.08;;
20090;SDS011;10205;49.678;6.560;2022-09-27T15:15:31;0.93;;;0.65;;
20090;SDS011;10205;49.678;6.560;2022-09-27T15:18:00;2.20;;;0.95;;
20090;SDS011;10205;49.678;6.560;2022-09-27T15:20:29;1.10;;;1.00;;
20090;SDS011;10205;49.678;6.560;2022-09-27T15:23:00;1.48;;;1.05;;
20090;SDS011;10205;49.678;6.560;2022-09-27T15:25:29;2.42;;;0.80;;
20090;SDS011;10205;49.678;6.560;2022-09-27T15:28:03;1.85;;;1.00;;
20090;SDS011;10205;49.678;6.560;2022-09-27T15:30:40;0.98;;;0.90;;
20090;SDS011;10205;49.678;6.560;2022-09-27T15:33:20;1.92;;;0.90;;
20090;SDS011;10205;49.678;6.560;2022-09-27T15:35:51;1.90;;;1.00;;
20090;SDS011;10205;49.678;6.560;2022-09-27T15:38:27;1.75;;;0.90;;
20090;SDS011;10205;49.678;6.560;2022-09-27T15:41:11;1.17;;;0.82;;
20090;SDS011;10205;49.678;6.560;2022-09-27T15:43:43;1.85;;;1.13;;
20090;SDS011;10205;49.678;6.560;2022-09-27T15:46:32;1.73;;;0.85;;
20090;SDS011;10205;49.678;6.560;2022-09-27T15:52:02;1.38;;;0.93;;
20090;SDS011;10205;49.678;6.560;2022-09-27T15:54:31;1.55;;;0.90;;
20090;SDS011;10205;49.678;6.560;2022-09-27T15:57:02;2.35;;;1.15;;
20090;SDS011;10205;49.678;6.560;2022-09-27T15:59:31;0.82;;;0.70;;
20090;SDS011;10205;49.678;6.560;2022-09-27T16:02:02;3.78;;;1.48;;
20090;SDS011;10205;49.678;6.560;2022-09-27T16:04:43;2.80;;;1.00;;
20090;SDS011;10205;49.678;6.560;2022-09-27T16:07:10;0.90;;;0.65;;
20090;SDS011;10205;49.678;6.560;2022-09-27T16:09:40;1.13;;;0.73;;